sensor_id;sensor_type;location;lat;lon;timestamp;P1;durP1;ratioP1;P2;durP2;ratioP2
30062;SDS011;16889;67.864;24.990;2023-06-19T00:03:18;4.00;;;2.42;;
30062;SDS011;16889;67.864;24.990;2023-06-19T00:08:04;4.03;;;2.50;;
30062;SDS011;16889;67.864;24.990;2023-06-19T00:12:51;5.40;;;2.40;;
30062;SDS011;16889;67.864;24.990;2023-06-19T00:17:37;3.67;;;2.47;;
30062;SDS011;16889;67.864;24.990;2023-06-19T00:22:24;4.55;;;2.40;;
30062;SDS011;16889;67.864;24.990;2023-06-19T00:27:11;4.55;;;2.58;;
30062;SDS011;16889;67.864;24.990;2023-06-19T00:31:57;4.35;;;2.25;;
30062;SDS011;16889;67.864;24.990;2023-06-19T00:36:46;5.68;;;2.28;;
30062;SDS011;16889;67.864;24.990;2023-06-19T00:41:32;4.43;;;2.60;;
30062;SDS011;16889;67.864;24.990;2023-06-19T00:46:19;4.03;;;2.70;;
30062;SDS011;16889;67.864;24.990;2023-06-19T00:51:05;3.17;;;2.25;;
30062;SDS011;16889;67.864;24.990;2023-06-19T00:55:51;3.72;;;2.40;;
30062;SDS011;16889;67.864;24.990;2023-06-19T01:00:39;3.70;;;2.20;;
30062;SDS011;16889;67.864;24.990;2023-06-19T01:05:25;3.42;;;2.33;;
30062;SDS011;16889;67.864;24.990;2023-06-19T01:10:12;4.15;;;2.53;;
30062;SDS011;16889;67.864;24.990;2023-06-19T01:15:03;4.38;;;2.70;;
30062;SDS011;16889;67.864;24.990;2023-06-19T01:19:50;3.53;;;2.50;;
30062;SDS011;16889;67.864;24.990;2023-06-19T01:24:36;3.47;;;2.28;;
30062;SDS011;16889;67.864;24.990;2023-06-19T01:29:22;3.90;;;2.50;;
30062;SDS011;16889;67.864;24.990;2023-06-19T01:34:09;4.50;;;2.55;;
30062;SDS011;16889;67.864;24.990;2023-06-19T01:38:57;4.00;;;2.67;;
30062;SDS011;16889;67.864;24.990;2023-06-19T01:43:44;4.85;;;2.40;;
30062;SDS011;16889;67.864;24.990;2023-06-19T01:48:31;4.05;;;2.42;;
30062;SDS011;16889;67.864;24.990;2023-06-19T01:53:17;3.28;;;2.35;;
30062;SDS011;16889;67.864;24.990;2023-06-19T01:58:04;3.72;;;2.20;;
30062;SDS011;16889;67.864;24.990;2023-06-19T02:02:51;3.38;;;2.20;;
30062;SDS011;16889;67.864;24.990;2023-06-19T02:07:37;2.25;;;1.92;;
30062;SDS011;16889;67.864;24.990;2023-06-19T02:12:23;3.65;;;2.25;;
30062;SDS011;16889;67.864;24.990;2023-06-19T02:17:09;4.18;;;2.40;;
30062;SDS011;16889;67.864;24.990;2023-06-19T02:21:55;4.40;;;2.30;;
30062;SDS011;16889;67.864;24.990;2023-06-19T02:26:41;5.03;;;2.53;;
30062;SDS011;16889;67.864;24.990;2023-06-19T02:31:29;4.30;;;2.40;;
30062;SDS011;16889;67.864;24.990;2023-06-19T02:36:15;3.47;;;2.00;;
30062;SDS011;16889;67.864;24.990;2023-06-19T02:41:04;4.90;;;2.40;;
30062;SDS011;16889;67.864;24.990;2023-06-19T02:45:50;5.60;;;2.20;;
30062;SDS011;16889;67.864;24.990;2023-06-19T02:50:36;2.95;;;2.13;;
30062;SDS011;16889;67.864;24.990;2023-06-19T02:55:22;4.45;;;2.00;;
30062;SDS011;16889;67.864;24.990;2023-06-19T03:00:08;4.05;;;2.42;;
30062;SDS011;16889;67.864;24.990;2023-06-19T03:04:55;5.90;;;2.20;;
30062;SDS011;16889;67.864;24.990;2023-06-19T03:09:41;3.40;;;1.90;;
30062;SDS011;16889;67.864;24.990;2023-06-19T03:14:27;3.00;;;1.85;;
30062;SDS011;16889;67.864;24.990;2023-06-19T03:19:13;2.88;;;1.90;;
30062;SDS011;16889;67.864;24.990;2023-06-19T03:23:59;4.53;;;2.17;;
30062;SDS011;16889;67.864;24.990;2023-06-19T03:28:45;5.25;;;2.08;;
30062;SDS011;16889;67.864;24.990;2023-06-19T03:33:34;4.68;;;2.08;;
30062;SDS011;16889;67.864;24.990;2023-06-19T03:38:20;4.43;;;1.90;;
30062;SDS011;16889;67.864;24.990;2023-06-19T03:43:06;3.33;;;1.98;;
30062;SDS011;16889;67.864;24.990;2023-06-19T03:47:52;2.97;;;1.67;;
30062;SDS011;16889;67.864;24.990;2023-06-19T03:52:38;4.50;;;1.90;;
30062;SDS011;16889;67.864;24.990;2023-06-19T03:57:24;3.25;;;1.60;;
30062;SDS011;16889;67.864;24.990;2023-06-19T04:02:10;2.55;;;1.70;;
30062;SDS011;16889;67.864;24.990;2023-06-19T04:06:56;4.50;;;1.90;;
30062;SDS011;16889;67.864;24.990;2023-06-19T04:11:44;4.47;;;1.90;;
30062;SDS011;16889;67.864;24.990;2023-06-19T04:16:30;3.40;;;1.70;;
30062;SDS011;16889;67.864;24.990;2023-06-19T04:21:16;2.53;;;1.60;;
30062;SDS011;16889;67.864;24.990;2023-06-19T04:26:02;5.53;;;1.80;;
30062;SDS011;16889;67.864;24.990;2023-06-19T04:30:49;2.67;;;1.80;;
30062;SDS011;16889;67.864;24.990;2023-06-19T04:35:35;5.05;;;1.70;;
30062;SDS011;16889;67.864;24.990;2023-06-19T04:40:25;3.08;;;1.42;;
30062;SDS011;16889;67.864;24.990;2023-06-19T04:45:11;4.07;;;1.60;;
30062;SDS011;16889;67.864;24.990;2023-06-19T04:49:58;12.02;;;1.45;;
30062;SDS011;16889;67.864;24.990;2023-06-19T04:54:46;4.65;;;1.55;;
30062;SDS011;16889;67.864;24.990;2023-06-19T04:59:33;3.42;;;1.45;;
30062;SDS011;16889;67.864;24.990;2023-06-19T05:04:22;1.27;;;1.10;;
30062;SDS011;16889;67.864;24.990;2023-06-19T05:09:08;4.43;;;1.40;;
30062;SDS011;16889;67.864;24.990;2023-06-19T05:13:54;3.37;;;1.53;;
30062;SDS011;16889;67.864;24.990;2023-06-19T05:18:40;4.60;;;1.40;;
30062;SDS011;16889;67.864;24.990;2023-06-19T05:23:26;2.97;;;1.50;;
30062;SDS011;16889;67.864;24.990;2023-06-19T05:28:12;3.27;;;1.30;;
30062;SDS011;16889;67.864;24.990;2023-06-19T05:32:57;3.60;;;1.53;;
30062;SDS011;16889;67.864;24.990;2023-06-19T05:37:43;7.00;;;1.90;;
30062;SDS011;16889;67.864;24.990;2023-06-19T05:42:30;4.57;;;1.60;;
30062;SDS011;16889;67.864;24.990;2023-06-19T05:47:16;4.40;;;1.65;;
30062;SDS011;16889;67.864;24.990;2023-06-19T05:52:04;4.75;;;1.60;;
30062;SDS011;16889;67.864;24.990;2023-06-19T05:56:51;6.05;;;1.90;;
30062;SDS011;16889;67.864;24.990;2023-06-19T06:01:38;6.47;;;1.80;;
30062;SDS011;16889;67.864;24.990;2023-06-19T06:06:24;4.28;;;1.77;;
30062;SDS011;16889;67.864;24.990;2023-06-19T06:11:11;5.40;;;1.87;;
30062;SDS011;16889;67.864;24.990;2023-06-19T06:15:56;4.80;;;1.80;;
30062;SDS011;16889;67.864;24.990;2023-06-19T06:20:42;5.07;;;1.80;;
30062;SDS011;16889;67.864;24.990;2023-06-19T06:25:28;5.55;;;1.60;;
30062;SDS011;16889;67.864;24.990;2023-06-19T06:30:14;4.70;;;1.77;;
30062;SDS011;16889;67.864;24.990;2023-06-19T06:35:00;3.28;;;1.50;;
30062;SDS011;16889;67.864;24.990;2023-06-19T06:39:46;3.60;;;1.33;;
30062;SDS011;16889;67.864;24.990;2023-06-19T06:44:33;3.42;;;1.63;;
30062;SDS011;16889;67.864;24.990;2023-06-19T06:49:19;4.20;;;1.67;;
30062;SDS011;16889;67.864;24.990;2023-06-19T06:54:05;6.18;;;1.58;;
30062;SDS011;16889;67.864;24.990;2023-06-19T06:58:51;4.63;;;2.13;;
30062;SDS011;16889;67.864;24.990;2023-06-19T07:03:37;6.32;;;1.60;;
30062;SDS011;16889;67.864;24.990;2023-06-19T07:08:24;2.53;;;1.52;;
30062;SDS011;16889;67.864;24.990;2023-06-19T07:13:10;2.08;;;1.17;;
30062;SDS011;16889;67.864;24.990;2023-06-19T07:17:57;6.57;;;1.83;;
30062;SDS011;16889;67.864;24.990;2023-06-19T07:22:43;1.95;;;1.30;;
30062;SDS011;16889;67.864;24.990;2023-06-19T07:27:30;3.17;;;1.70;;
30062;SDS011;16889;67.864;24.990;2023-06-19T07:32:16;7.35;;;1.70;;
30062;SDS011;16889;67.864;24.990;2023-06-19T07:37:02;5.65;;;1.45;;
30062;SDS011;16889;67.864;24.990;2023-06-19T07:41:48;3.83;;;1.38;;
30062;SDS011;16889;67.864;24.990;2023-06-19T07:46:34;4.10;;;1.17;;
30062;SDS011;16889;67.864;24.990;2023-06-19T07:51:20;4.18;;;1.38;;
30062;SDS011;16889;67.864;24.990;2023-06-19T07:56:06;3.77;;;1.70;;
30062;SDS011;16889;67.864;24.990;2023-06-19T08:00:53;11.07;;;1.83;;
30062;SDS011;16889;67.864;24.990;2023-06-19T08:05:39;7.68;;;1.45;;
30062;SDS011;16889;67.864;24.990;2023-06-19T08:10:25;6.05;;;1.55;;
30062;SDS011;16889;67.864;24.990;2023-06-19T08:15:11;5.38;;;1.35;;
30062;SDS011;16889;67.864;24.990;2023-06-19T08:20:00;7.70;;;1.40;;
30062;SDS011;16889;67.864;24.990;2023-06-19T08:24:48;4.40;;;1.50;;
30062;SDS011;16889;67.864;24.990;2023-06-19T08:29:34;4.07;;;1.30;;
30062;SDS011;16889;67.864;24.990;2023-06-19T08:34:20;3.43;;;1.20;;
30062;SDS011;16889;67.864;24.990;2023-06-19T08:39:07;4.53;;;1.30;;
30062;SDS011;16889;67.864;24.990;2023-06-19T08:48:39;4.97;;;1.25;;
30062;SDS011;16889;67.864;24.990;2023-06-19T08:53:26;3.25;;;1.50;;
30062;SDS011;16889;67.864;24.990;2023-06-19T08:58:19;13.43;;;1.58;;
30062;SDS011;16889;67.864;24.990;2023-06-19T09:03:09;5.70;;;1.50;;
30062;SDS011;16889;67.864;24.990;2023-06-19T09:07:56;7.72;;;1.42;;
30062;SDS011;16889;67.864;24.990;2023-06-19T09:12:58;6.00;;;1.40;;
30062;SDS011;16889;67.864;24.990;2023-06-19T09:17:59;6.80;;;1.90;;
30062;SDS011;16889;67.864;24.990;2023-06-19T09:22:54;3.38;;;1.40;;
30062;SDS011;16889;67.864;24.990;2023-06-19T09:27:43;5.50;;;1.48;;
30062;SDS011;16889;67.864;24.990;2023-06-19T09:32:29;9.02;;;1.45;;
30062;SDS011;16889;67.864;24.990;2023-06-19T09:37:15;5.93;;;1.67;;
30062;SDS011;16889;67.864;24.990;2023-06-19T09:42:09;7.90;;;1.50;;
30062;SDS011;16889;67.864;24.990;2023-06-19T09:46:56;5.13;;;1.30;;
30062;SDS011;16889;67.864;24.990;2023-06-19T09:51:44;3.70;;;1.50;;
30062;SDS011;16889;67.864;24.990;2023-06-19T09:56:31;4.15;;;1.30;;
30062;SDS011;16889;67.864;24.990;2023-06-19T10:01:18;7.63;;;1.58;;
30062;SDS011;16889;67.864;24.990;2023-06-19T10:06:04;5.03;;;1.20;;
30062;SDS011;16889;67.864;24.990;2023-06-19T10:10:51;3.55;;;1.30;;
30062;SDS011;16889;67.864;24.990;2023-06-19T10:15:41;7.80;;;1.50;;
30062;SDS011;16889;67.864;24.990;2023-06-19T10:20:29;4.60;;;1.65;;
30062;SDS011;16889;67.864;24.990;2023-06-19T10:25:20;4.50;;;1.55;;
30062;SDS011;16889;67.864;24.990;2023-06-19T10:30:16;9.40;;;1.63;;
30062;SDS011;16889;67.864;24.990;2023-06-19T10:35:10;4.15;;;1.40;;
30062;SDS011;16889;67.864;24.990;2023-06-19T10:40:00;3.33;;;1.37;;
30062;SDS011;16889;67.864;24.990;2023-06-19T10:44:46;4.32;;;1.23;;
30062;SDS011;16889;67.864;24.990;2023-06-19T10:49:31;8.47;;;1.70;;
30062;SDS011;16889;67.864;24.990;2023-06-19T10:54:18;5.50;;;1.87;;
30062;SDS011;16889;67.864;24.990;2023-06-19T10:59:05;10.10;;;1.80;;
30062;SDS011;16889;67.864;24.990;2023-06-19T11:03:54;5.53;;;1.52;;
30062;SDS011;16889;67.864;24.990;2023-06-19T11:08:40;3.05;;;1.60;;
30062;SDS011;16889;67.864;24.990;2023-06-19T11:13:26;6.88;;;1.88;;
30062;SDS011;16889;67.864;24.990;2023-06-19T11:18:14;7.63;;;1.98;;
30062;SDS011;16889;67.864;24.990;2023-06-19T11:23:01;3.83;;;1.60;;
30062;SDS011;16889;67.864;24.990;2023-06-19T11:27:49;5.88;;;1.88;;
30062;SDS011;16889;67.864;24.990;2023-06-19T11:32:37;4.05;;;1.80;;
30062;SDS011;16889;67.864;24.990;2023-06-19T11:37:29;7.88;;;2.05;;
30062;SDS011;16889;67.864;24.990;2023-06-19T11:42:15;5.68;;;2.05;;
30062;SDS011;16889;67.864;24.990;2023-06-19T11:51:48;3.17;;;2.30;;
30062;SDS011;16889;67.864;24.990;2023-06-19T11:56:35;4.30;;;2.33;;
30062;SDS011;16889;67.864;24.990;2023-06-19T12:01:22;5.13;;;2.15;;
30062;SDS011;16889;67.864;24.990;2023-06-19T12:06:08;4.05;;;2.08;;
30062;SDS011;16889;67.864;24.990;2023-06-19T12:10:54;4.63;;;2.10;;
30062;SDS011;16889;67.864;24.990;2023-06-19T12:15:40;3.85;;;2.13;;
30062;SDS011;16889;67.864;24.990;2023-06-19T12:20:26;3.28;;;2.17;;
30062;SDS011;16889;67.864;24.990;2023-06-19T12:25:12;4.72;;;2.17;;
30062;SDS011;16889;67.864;24.990;2023-06-19T12:29:58;7.75;;;1.95;;
30062;SDS011;16889;67.864;24.990;2023-06-19T12:34:44;5.00;;;2.40;;
30062;SDS011;16889;67.864;24.990;2023-06-19T12:39:31;5.78;;;2.30;;
30062;SDS011;16889;67.864;24.990;2023-06-19T12:44:17;6.28;;;2.35;;
30062;SDS011;16889;67.864;24.990;2023-06-19T12:49:03;4.00;;;2.60;;
30062;SDS011;16889;67.864;24.990;2023-06-19T12:53:50;5.63;;;2.50;;
30062;SDS011;16889;67.864;24.990;2023-06-19T12:58:36;4.03;;;2.05;;
30062;SDS011;16889;67.864;24.990;2023-06-19T13:03:21;4.20;;;2.40;;
30062;SDS011;16889;67.864;24.990;2023-06-19T13:08:07;3.72;;;1.95;;
30062;SDS011;16889;67.864;24.990;2023-06-19T13:12:54;3.08;;;2.20;;
30062;SDS011;16889;67.864;24.990;2023-06-19T13:17:40;5.60;;;2.97;;
30062;SDS011;16889;67.864;24.990;2023-06-19T13:22:25;4.45;;;2.80;;
30062;SDS011;16889;67.864;24.990;2023-06-19T13:27:11;3.88;;;2.83;;
30062;SDS011;16889;67.864;24.990;2023-06-19T13:31:57;5.32;;;2.70;;
30062;SDS011;16889;67.864;24.990;2023-06-19T13:36:43;3.95;;;2.42;;
30062;SDS011;16889;67.864;24.990;2023-06-19T13:41:30;5.63;;;2.38;;
30062;SDS011;16889;67.864;24.990;2023-06-19T13:51:03;5.05;;;2.80;;
30062;SDS011;16889;67.864;24.990;2023-06-19T13:55:49;3.40;;;2.63;;
30062;SDS011;16889;67.864;24.990;2023-06-19T14:00:35;4.57;;;3.10;;
30062;SDS011;16889;67.864;24.990;2023-06-19T14:05:22;5.18;;;3.10;;
30062;SDS011;16889;67.864;24.990;2023-06-19T14:10:08;4.90;;;2.97;;
30062;SDS011;16889;67.864;24.990;2023-06-19T14:14:54;4.40;;;2.93;;
30062;SDS011;16889;67.864;24.990;2023-06-19T14:19:41;4.30;;;3.13;;
30062;SDS011;16889;67.864;24.990;2023-06-19T14:24:27;6.38;;;3.03;;
30062;SDS011;16889;67.864;24.990;2023-06-19T14:29:13;5.93;;;3.20;;
30062;SDS011;16889;67.864;24.990;2023-06-19T14:34:00;4.93;;;3.30;;
30062;SDS011;16889;67.864;24.990;2023-06-19T14:38:46;4.10;;;2.85;;
30062;SDS011;16889;67.864;24.990;2023-06-19T14:43:32;5.45;;;2.80;;
30062;SDS011;16889;67.864;24.990;2023-06-19T14:48:20;4.03;;;3.00;;
30062;SDS011;16889;67.864;24.990;2023-06-19T14:53:06;9.23;;;2.75;;
30062;SDS011;16889;67.864;24.990;2023-06-19T14:57:52;3.78;;;2.80;;
30062;SDS011;16889;67.864;24.990;2023-06-19T15:02:38;3.90;;;2.80;;
30062;SDS011;16889;67.864;24.990;2023-06-19T15:07:24;3.17;;;2.78;;
30062;SDS011;16889;67.864;24.990;2023-06-19T15:12:10;5.00;;;3.00;;
30062;SDS011;16889;67.864;24.990;2023-06-19T15:16:56;4.55;;;3.20;;
30062;SDS011;16889;67.864;24.990;2023-06-19T15:21:42;4.28;;;3.00;;
30062;SDS011;16889;67.864;24.990;2023-06-19T15:26:28;3.92;;;3.22;;
30062;SDS011;16889;67.864;24.990;2023-06-19T15:31:14;3.50;;;3.00;;
30062;SDS011;16889;67.864;24.990;2023-06-19T15:36:02;6.93;;;3.30;;
30062;SDS011;16889;67.864;24.990;2023-06-19T15:40:49;4.68;;;3.00;;
30062;SDS011;16889;67.864;24.990;2023-06-19T15:45:35;4.90;;;2.95;;
30062;SDS011;16889;67.864;24.990;2023-06-19T15:50:21;5.53;;;3.70;;
30062;SDS011;16889;67.864;24.990;2023-06-19T15:55:07;4.13;;;3.20;;
30062;SDS011;16889;67.864;24.990;2023-06-19T15:59:53;6.00;;;3.00;;
30062;SDS011;16889;67.864;24.990;2023-06-19T16:04:39;3.72;;;3.08;;
30062;SDS011;16889;67.864;24.990;2023-06-19T16:09:25;3.47;;;2.88;;
30062;SDS011;16889;67.864;24.990;2023-06-19T16:14:11;3.92;;;2.95;;
30062;SDS011;16889;67.864;24.990;2023-06-19T16:18:57;3.95;;;3.10;;
30062;SDS011;16889;67.864;24.990;2023-06-19T16:23:43;6.03;;;3.22;;
30062;SDS011;16889;67.864;24.990;2023-06-19T16:28:29;5.70;;;3.60;;
30062;SDS011;16889;67.864;24.990;2023-06-19T16:33:15;4.68;;;2.97;;
30062;SDS011;16889;67.864;24.990;2023-06-19T16:38:01;4.23;;;2.90;;
30062;SDS011;16889;67.864;24.990;2023-06-19T16:42:47;3.78;;;2.90;;
30062;SDS011;16889;67.864;24.990;2023-06-19T16:47:34;5.07;;;2.90;;
30062;SDS011;16889;67.864;24.990;2023-06-19T16:52:20;3.95;;;2.90;;
30062;SDS011;16889;67.864;24.990;2023-06-19T16:57:07;5.20;;;2.83;;
30062;SDS011;16889;67.864;24.990;2023-06-19T17:01:53;4.53;;;2.88;;
30062;SDS011;16889;67.864;24.990;2023-06-19T17:06:39;4.40;;;2.92;;
30062;SDS011;16889;67.864;24.990;2023-06-19T17:11:25;3.22;;;2.47;;
30062;SDS011;16889;67.864;24.990;2023-06-19T17:16:11;3.22;;;2.60;;
30062;SDS011;16889;67.864;24.990;2023-06-19T17:20:57;3.90;;;2.42;;
30062;SDS011;16889;67.864;24.990;2023-06-19T17:25:43;5.35;;;2.70;;
30062;SDS011;16889;67.864;24.990;2023-06-19T17:30:30;5.57;;;2.83;;
30062;SDS011;16889;67.864;24.990;2023-06-19T17:35:16;4.38;;;2.80;;
30062;SDS011;16889;67.864;24.990;2023-06-19T17:40:03;3.88;;;2.85;;
30062;SDS011;16889;67.864;24.990;2023-06-19T17:49:36;5.13;;;2.80;;
30062;SDS011;16889;67.864;24.990;2023-06-19T17:54:22;7.28;;;2.85;;
30062;SDS011;16889;67.864;24.990;2023-06-19T17:59:10;8.45;;;3.17;;
30062;SDS011;16889;67.864;24.990;2023-06-19T18:03:58;6.38;;;3.10;;
30062;SDS011;16889;67.864;24.990;2023-06-19T18:08:44;7.78;;;2.80;;
30062;SDS011;16889;67.864;24.990;2023-06-19T18:13:30;3.35;;;2.75;;
30062;SDS011;16889;67.864;24.990;2023-06-19T18:18:17;3.90;;;2.67;;
30062;SDS011;16889;67.864;24.990;2023-06-19T18:23:03;3.90;;;2.90;;
30062;SDS011;16889;67.864;24.990;2023-06-19T18:27:49;5.93;;;3.30;;
30062;SDS011;16889;67.864;24.990;2023-06-19T18:32:35;4.70;;;2.95;;
30062;SDS011;16889;67.864;24.990;2023-06-19T18:37:21;8.13;;;3.53;;
30062;SDS011;16889;67.864;24.990;2023-06-19T18:42:07;4.75;;;3.22;;
30062;SDS011;16889;67.864;24.990;2023-06-19T18:46:53;6.22;;;2.88;;
30062;SDS011;16889;67.864;24.990;2023-06-19T18:51:39;4.80;;;2.90;;
30062;SDS011;16889;67.864;24.990;2023-06-19T18:56:25;5.30;;;3.25;;
30062;SDS011;16889;67.864;24.990;2023-06-19T19:01:11;4.65;;;3.30;;
30062;SDS011;16889;67.864;24.990;2023-06-19T19:05:58;8.18;;;3.25;;
30062;SDS011;16889;67.864;24.990;2023-06-19T19:10:44;4.68;;;3.35;;
30062;SDS011;16889;67.864;24.990;2023-06-19T19:15:30;6.03;;;3.47;;
30062;SDS011;16889;67.864;24.990;2023-06-19T19:20:16;6.32;;;3.47;;
30062;SDS011;16889;67.864;24.990;2023-06-19T19:25:02;4.63;;;3.10;;
30062;SDS011;16889;67.864;24.990;2023-06-19T19:29:47;3.40;;;2.75;;
30062;SDS011;16889;67.864;24.990;2023-06-19T19:34:33;6.25;;;3.30;;
30062;SDS011;16889;67.864;24.990;2023-06-19T19:39:19;5.85;;;3.22;;
30062;SDS011;16889;67.864;24.990;2023-06-19T19:44:05;4.82;;;3.22;;
30062;SDS011;16889;67.864;24.990;2023-06-19T19:48:51;5.55;;;3.53;;
30062;SDS011;16889;67.864;24.990;2023-06-19T19:53:37;4.07;;;2.90;;
30062;SDS011;16889;67.864;24.990;2023-06-19T19:58:23;5.18;;;3.17;;
30062;SDS011;16889;67.864;24.990;2023-06-19T20:03:11;7.43;;;3.57;;
30062;SDS011;16889;67.864;24.990;2023-06-19T20:07:57;6.10;;;3.60;;
30062;SDS011;16889;67.864;24.990;2023-06-19T20:12:43;5.03;;;3.28;;
30062;SDS011;16889;67.864;24.990;2023-06-19T20:17:29;7.30;;;3.67;;
30062;SDS011;16889;67.864;24.990;2023-06-19T20:22:15;5.40;;;3.78;;
30062;SDS011;16889;67.864;24.990;2023-06-19T20:27:00;5.63;;;4.28;;
30062;SDS011;16889;67.864;24.990;2023-06-19T20:31:47;7.50;;;4.75;;
30062;SDS011;16889;67.864;24.990;2023-06-19T20:36:33;6.78;;;4.35;;
30062;SDS011;16889;67.864;24.990;2023-06-19T20:41:19;7.15;;;4.28;;
30062;SDS011;16889;67.864;24.990;2023-06-19T20:46:05;5.18;;;4.40;;
30062;SDS011;16889;67.864;24.990;2023-06-19T20:50:52;7.93;;;5.55;;
30062;SDS011;16889;67.864;24.990;2023-06-19T20:55:39;7.97;;;5.38;;
30062;SDS011;16889;67.864;24.990;2023-06-19T21:00:25;6.72;;;4.90;;
30062;SDS011;16889;67.864;24.990;2023-06-19T21:05:12;9.77;;;5.30;;
30062;SDS011;16889;67.864;24.990;2023-06-19T21:10:00;6.93;;;4.93;;
30062;SDS011;16889;67.864;24.990;2023-06-19T21:14:46;5.68;;;4.53;;
30062;SDS011;16889;67.864;24.990;2023-06-19T21:19:32;5.85;;;4.80;;
30062;SDS011;16889;67.864;24.990;2023-06-19T21:24:18;7.93;;;5.57;;
30062;SDS011;16889;67.864;24.990;2023-06-19T21:29:04;6.55;;;4.88;;
30062;SDS011;16889;67.864;24.990;2023-06-19T21:33:50;7.57;;;4.88;;
30062;SDS011;16889;67.864;24.990;2023-06-19T21:38:36;5.28;;;4.55;;
30062;SDS011;16889;67.864;24.990;2023-06-19T21:43:22;7.18;;;4.22;;
30062;SDS011;16889;67.864;24.990;2023-06-19T21:48:08;8.07;;;4.53;;
30062;SDS011;16889;67.864;24.990;2023-06-19T21:52:54;6.00;;;4.28;;
30062;SDS011;16889;67.864;24.990;2023-06-19T21:57:40;6.10;;;4.70;;
30062;SDS011;16889;67.864;24.990;2023-06-19T22:02:27;6.65;;;4.35;;
30062;SDS011;16889;67.864;24.990;2023-06-19T22:07:13;7.07;;;4.40;;
30062;SDS011;16889;67.864;24.990;2023-06-19T22:12:01;6.65;;;4.68;;
30062;SDS011;16889;67.864;24.990;2023-06-19T22:16:48;6.70;;;4.80;;
30062;SDS011;16889;67.864;24.990;2023-06-19T22:21:34;6.63;;;4.07;;
30062;SDS011;16889;67.864;24.990;2023-06-19T22:26:20;4.68;;;3.80;;
30062;SDS011;16889;67.864;24.990;2023-06-19T22:31:05;7.10;;;4.22;;
30062;SDS011;16889;67.864;24.990;2023-06-19T22:35:51;7.03;;;4.53;;
30062;SDS011;16889;67.864;24.990;2023-06-19T22:40:37;6.25;;;4.65;;
30062;SDS011;16889;67.864;24.990;2023-06-19T22:45:23;8.02;;;4.35;;
30062;SDS011;16889;67.864;24.990;2023-06-19T22:50:09;7.35;;;4.20;;
30062;SDS011;16889;67.864;24.990;2023-06-19T22:54:55;8.25;;;4.93;;
30062;SDS011;16889;67.864;24.990;2023-06-19T22:59:41;5.93;;;4.60;;
30062;SDS011;16889;67.864;24.990;2023-06-19T23:04:27;6.70;;;4.75;;
30062;SDS011;16889;67.864;24.990;2023-06-19T23:09:13;6.00;;;4.43;;
30062;SDS011;16889;67.864;24.990;2023-06-19T23:13:59;5.97;;;4.57;;
30062;SDS011;16889;67.864;24.990;2023-06-19T23:18:45;6.53;;;4.47;;
30062;SDS011;16889;67.864;24.990;2023-06-19T23:23:31;5.85;;;4.40;;
30062;SDS011;16889;67.864;24.990;2023-06-19T23:28:17;7.05;;;4.90;;
30062;SDS011;16889;67.864;24.990;2023-06-19T23:33:03;5.97;;;4.65;;
30062;SDS011;16889;67.864;24.990;2023-06-19T23:37:49;6.28;;;4.93;;
30062;SDS011;16889;67.864;24.990;2023-06-19T23:42:35;8.52;;;5.40;;
30062;SDS011;16889;67.864;24.990;2023-06-19T23:47:21;6.03;;;4.72;;
30062;SDS011;16889;67.864;24.990;2023-06-19T23:52:07;6.55;;;4.65;;
30062;SDS011;16889;67.864;24.990;2023-06-19T23:56:53;5.72;;;4.63;;
